Park Forest, IL

7:43 PM CDT on October 20, 2014 (GMT -0500)
Northern Crete IL | Change Station
CLOSE
Current Station
Personal Weather Station
Location: Crete, IL
Elevation: 730 ft
Nearby Weather Stations

Elev 730 ft 41.47 °N, 87.62 °W | Updated 6 seconds ago

Overcast
Overcast
52.3 °F
Feels Like 52.3 °F
N
1.5
Wind Variable Wind from ENE
Gusts 1.5 mph

Today
High -- | Low -- °F
--% Chance of Precip.
Yesterday
High -- | Low -- °F
Precip. -- in
7:08 AM 6:02 PM
Waning Crescent, 8% visible
Pressure 29.96 in
Visibility 10.0 miles
Clouds Overcast 6000 ft
Dew Point 47 °F
Humidity 81%
Rainfall -999.00 in
Snow Depth Not available.
UV 0 out of 12
Pollen 2.00 out of 12
Ozone Good
PM2.5 Good
Flu Activity No Activity
METAR KIGQ 210035Z AUTO 02009KT 10SM OVC060 12/09 A2996 RMK AO2 T01210088

More Conditions Fewer Conditions

Pressure 29.96 in
Visibility 10.0 miles
Clouds Overcast 6000 ft
Dew Point 47 °F
Humidity 81%
Rainfall -999.00 in
Snow Depth Not available.
UV 0 out of 12
Pollen 2.00 out of 12
Ozone Good
PM2.5 Good
Flu Activity No Activity
METAR KIGQ 210035Z AUTO 02009KT 10SM OVC060 12/09 A2996 RMK AO2 T01210088

More Conditions Fewer Conditions

10-Day Weather Forecast

Almanac

Astronomy

Oct. 20, 2014 Rise Set
Actual Time 7:08 AM CDT 6:02 PM CDT
Civil Twilight 6:40 AM CDT 6:30 PM CDT
Nautical Twilight 6:08 AM CDT 7:02 PM CDT
Astronomical Twilight 5:35 AM CDT 7:34 PM CDT
Moon 3:54 AM CDT (10/20) 4:26 PM CDT (10/20)
Length of Visible Light 11h 49m
Length of Day
10h 53m
Tomorrow will be 2m 38s shorter.
Waning Crescent, 8% of the Moon is Illuminated
Today
Waning Crescent
Oct 23
New
Oct 30
First Quarter
Nov 6
Full
Nov 14
Last Quarter

Today's Extremes

State Highs State Lows

Community

WunderPhotos

Upload Photos

1,763,565 photos uploaded!

Nearby

Air Quality

  Air Quality AQ Index Pollutant
Yesterday Good
PM2.5
Yesterday Good
OZONE
Current Good
PM2.5
Current Good
OZONE
Monday Good
PM2.5
Tuesday Good
PM2.5
Wednesday Good
PM2.5

Snow Depth

Station Depth Elevation
No new snow has been reported.

Earthquake Activity

City Distance Mag. Time & Date
No recent earthquake activity has been reported nearby.
Minimum magnitude displayed is 2.5.

Coastal Water Temperatures

Place Temperature
No Stations Reporting

Nearby Weather Stations